This is the latest recevied weather packets stored in our database for station/object DR0T. If no packets are shown the sender has not sent any weather packets the latest 10 day(s).
| Time | Temp. | Humidity | Pressure | Rain* | Wind** | Luminosity | Snow |
|---|---|---|---|---|---|---|---|
| 1777774936 | 15° C | 51% | 1016.8 hPa | 0 mm | - | - | - |
| 1777774655 | 15.56° C | 50% | 1016.9 hPa | 0 mm | - | - | - |
| 1777774353 | 15.56° C | 50% | 1017 hPa | 0 mm | - | - | - |
| 1777774055 | 15.56° C | 49% | 1016.9 hPa | 0 mm | - | - | - |
| 1777773755 | 15.56° C | 49% | 1017 hPa | 0 mm | - | - | - |
| 1777773450 | 16.11° C | 50% | 1017 hPa | 0 mm | - | - | - |
| 1777773151 | 16.11° C | 49% | 1016.9 hPa | 0 mm | - | - | - |
| 1777772847 | 16.11° C | 49% | 1017.1 hPa | 0 mm | - | - | - |
| 1777772545 | 16.67° C | 48% | 1017 hPa | 0 mm | - | - | - |
| 1777772244 | 16.67° C | 48% | 1017.1 hPa | 0 mm | - | - | - |
| 1777771942 | 16.11° C | 49% | 1017.1 hPa | 0 mm | - | - | - |
| 1777771641 | 16.11° C | 49% | 1017.1 hPa | 0 mm | - | - | - |
| 1777771342 | 16.11° C | 49% | 1017 hPa | 0 mm | - | - | - |
| 1777771038 | 16.11° C | 49% | 1017.1 hPa | 0 mm | - | - | - |
| 1777770739 | 16.11° C | 49% | 1017.1 hPa | 0 mm | - | - | - |
| 1777770436 | 15.56° C | 51% | 1017.2 hPa | 0 mm | - | - | - |
| 1777770156 | 15° C | 52% | 1017.1 hPa | 0 mm | - | - | - |
| 1777769855 | 15.56° C | 52% | 1017.2 hPa | 0 mm | - | - | - |
| 1777769551 | 15.56° C | 51% | 1017.2 hPa | 0 mm | - | - | - |
| 1777769250 | 16.11° C | 48% | 1017.2 hPa | 0 mm | - | - | - |
| 1777768949 | 16.67° C | 46% | 1017.3 hPa | 0 mm | - | - | - |
| 1777768648 | 16.67° C | 45% | 1017.3 hPa | 0 mm | - | - | - |
| 1777768349 | 16.11° C | 47% | 1017.3 hPa | 0 mm | - | - | - |
| 1777768045 | 16.67° C | 47% | 1017.4 hPa | 0 mm | - | - | - |
| 1777767744 | 17.78° C | 45% | 1017.3 hPa | 0 mm | - | - | - |
* Rain latest hour (hover to see other rain measurements)
** Current wind speed in m/s (hover to see current wind gust speed)